• Join FlightAware (Why Join?)
  • Login
  • US Flag 
09:39AM EST


 

Airport Tracker/Info


-or-


 

Live Flight TrackerFlight Track Log ✈ UAL4457 ✈ 24-Apr-2013 ✈ KIAH - KLEX

Flight Track Log - Related Links

Times and Time Zones

All times are in EDT time to prevent confusion due to time zone crossing. See the UAL4457 flight status page for this flight to view local times or setup timezone preferences in your user account.

Time Position Orientation Groundspeed Altitude Reporting Facility
EDT Latitude Longitude Course Direction KTS MPH feet Rate Location/Type
03:12PM 29.9839 -95.3578 352° North 174 200 600  Level Houston Center
03:13PM 30.0267 -95.3647 352° North 204 235 2,300 1,980 Climbing Houston Center
03:14PM 30.0778 -95.3394 23° Northeast 224 258 4,300 2,280 Climbing Houston Center
03:15PM 30.1458 -95.3069 22° Northeast 264 304 6,900 2,340 Climbing Houston Center
03:16PM 30.2183 -95.2733 22° Northeast 280 322 9,200 1,740 Climbing Houston Center
03:17PM 30.2981 -95.2353 22° Northeast 306 352 10,600 1,320 Climbing Houston Center
03:18PM 30.3931 -95.1886 23° Northeast 365 420 12,000 1,740 Climbing Houston Center
03:19PM 30.5006 -95.1306 25° Northeast 370 426 14,300 1,860 Climbing Houston Center
03:20PM 30.5931 -95.0722 28° Northeast 376 433 15,900 1,380 Climbing Houston Center
03:21PM 30.6889 -95.0128 28° Northeast 387 445 17,200 1,200 Climbing Houston Center
03:22PM 30.8078 -94.9394 28° Northeast 402 463 18,500 1,200 Climbing Houston Center
03:23PM 30.9089 -94.8758 28° Northeast 412 474 19,800 1,260 Climbing Houston Center
03:23PM 30.9453 -94.8533 28° Northeast 411 473 20,400 1,260 Climbing Fort Worth Center
03:24PM 31.0483 -94.7900 28° Northeast 395 455 21,700 1,620 Climbing Fort Worth Center
03:25PM 31.1492 -94.7239 29° Northeast 400 460 23,700 1,800 Climbing Fort Worth Center
03:26PM 31.2542 -94.6553 29° Northeast 405 466 25,300 1,560 Climbing Fort Worth Center
03:27PM 31.3489 -94.5892 31° Northeast 405 466 26,900 1,680 Climbing Fort Worth Center
03:28PM 31.4453 -94.5231 30° Northeast 405 466 28,700 1,200 Climbing Fort Worth Center
03:29PM 31.5419 -94.4542 31° Northeast 405 466 29,300 1,080 Climbing Fort Worth Center
03:30PM 31.6364 -94.3878 31° Northeast 398 458 30,900 840 Climbing Fort Worth Center
03:31PM 31.7369 -94.3211 29° Northeast 398 458 31,000  Climbing Fort Worth Center
03:32PM 31.8458 -94.2439 31° Northeast 418 481 31,000  Level Fort Worth Center
03:33PM 31.9606 -94.1642 31° Northeast 449 517 31,000 540 Level Fort Worth Center
03:34PM 32.0733 -94.0842 31° Northeast 463 533 32,100 1,320 Climbing Fort Worth Center
03:35PM 32.1819 -94.0064 31° Northeast 463 533 33,700 1,440 Climbing Fort Worth Center
03:36PM 32.2842 -93.9264 33° Northeast 451 519 35,000 600 Climbing Fort Worth Center
03:37PM 32.3928 -93.8533 30° Northeast 445 512 35,000  Level Fort Worth Center
03:38PM 32.5011 -93.7728 32° Northeast 445 512 35,000  Level Fort Worth Center
03:39PM 32.6136 -93.6942 30° Northeast 445 512 35,000  Level Fort Worth Center
03:40PM 32.7281 -93.6156 30° Northeast 458 527 35,000  Level Fort Worth Center
03:41PM 32.8403 -93.5317 32° Northeast 463 533 35,000  Level Fort Worth Center
03:42PM 32.9547 -93.4525 30° Northeast 463 533 35,000  Level Fort Worth Center
03:43PM 33.0669 -93.3706 31° Northeast 463 533 35,000  Level Fort Worth Center
03:44PM 33.1811 -93.2883 31° Northeast 469 540 35,000  Level Fort Worth Center
03:46PM 33.4222 -93.1150 31° Northeast 465 535 35,000  Level Memphis Center
03:47PM 33.5369 -93.0314 31° Northeast 465 535 35,000  Level Memphis Center
03:48PM 33.6514 -92.9500 31° Northeast 465 535 35,000  Level Memphis Center
03:49PM 33.7614 -92.8658 32° Northeast 470 541 35,000  Level Memphis Center
03:50PM 33.8781 -92.7817 31° Northeast 470 541 35,000  Level Memphis Center
03:51PM 33.9922 -92.6997 31° Northeast 475 547 35,000  Level Memphis Center
03:52PM 34.1022 -92.6122 33° Northeast 475 547 35,000  Level Memphis Center
03:53PM 34.2167 -92.5275 31° Northeast 475 547 35,000  Level Memphis Center
03:54PM 34.3306 -92.4422 32° Northeast 475 547 35,000  Level Memphis Center
03:55PM 34.4469 -92.3519 33° Northeast 481 554 35,000  Level Memphis Center
03:56PM 34.5631 -92.2664 31° Northeast 481 554 35,000  Level Memphis Center
03:57PM 34.6750 -92.1803 32° Northeast 481 554 35,000  Level Memphis Center
03:58PM 34.7725 -92.0586 46° Northeast 481 554 35,000  Level Memphis Center
03:59PM 34.8703 -91.9339 46° Northeast 490 564 35,000  Level Memphis Center
04:00PM 34.9678 -91.8117 46° Northeast 495 570 35,000  Level Memphis Center
04:01PM 35.0628 -91.6864 47° Northeast 500 575 35,000  Level Memphis Center
04:02PM 35.1581 -91.5636 46° Northeast 500 575 35,000  Level Memphis Center
04:03PM 35.2572 -91.4353 47° Northeast 500 575 35,000  Level Memphis Center
04:04PM 35.3564 -91.3092 46° Northeast 500 575 35,000  Level Memphis Center
04:05PM 35.4447 -91.1956 46° Northeast 500 575 35,000  Level Memphis Center
04:06PM 35.5394 -91.0714 47° Northeast 500 575 35,000  Level Memphis Center
04:07PM 35.6464 -90.9292 47° Northeast 500 575 35,000  Level Memphis Center
04:08PM 35.7344 -90.8019 50° Northeast 498 573 35,000  Level Memphis Center
04:09PM 35.8350 -90.6744 46° Northeast 498 573 35,000  Level Memphis Center
04:10PM 35.9311 -90.5417 48° Northeast 498 573 35,000  Level Memphis Center
04:11PM 36.0294 -90.4133 47° Northeast 504 580 35,000  Level Memphis Center
04:12PM 36.1272 -90.2850 47° Northeast 509 586 35,000  Level Memphis Center
04:13PM 36.2231 -90.1536 48° Northeast 509 586 35,000  Level Memphis Center
04:14PM 36.3208 -90.0247 47° Northeast 509 586 35,000  Level Memphis Center
04:15PM 36.4161 -89.8953 48° Northeast 509 586 35,000  Level Memphis Center
04:16PM 36.5158 -89.7631 47° Northeast 509 586 35,000  Level Memphis Center
04:17PM 36.6131 -89.6281 48° Northeast 514 592 35,000  Level Memphis Center
04:18PM 36.7122 -89.4925 48° Northeast 519 597 35,000  Level Memphis Center
04:19PM 36.8092 -89.3592 48° Northeast 519 597 35,000  Level Memphis Center
04:20PM 36.9078 -89.2206 48° Northeast 519 597 35,000  Level Memphis Center
04:21PM 36.9942 -89.0997 48° Northeast 514 592 35,000  Level Memphis Center
04:22PM 37.0928 -88.9656 47° Northeast 514 592 35,000  Level Memphis Center
04:23PM 37.1892 -88.8258 49° Northeast 514 592 35,000  Level Memphis Center
04:24PM 37.2894 -88.6883 47° Northeast 514 592 35,000  Level Memphis Center
04:25PM 37.3853 -88.5533 48° Northeast 514 592 35,000  Level Memphis Center
04:28PM 37.5828 -88.2611 49° Northeast 537 618 35,000  Level Indianapolis Center
04:29PM 37.6942 -88.0942 50° Northeast 541 623 35,000 -180 Level Indianapolis Center
04:30PM 37.7453 -87.9053 71° East 567 652 34,700 -540 Descending Indianapolis Center
04:31PM 37.7772 -87.7047 79° East 560 644 34,000 -1,020 Descending Indianapolis Center
04:32PM 37.8081 -87.5131 78° East 557 641 32,600 -1,440 Descending Indianapolis Center
04:33PM 37.8408 -87.3167 78° East 570 656 31,100 -1,440 Descending Indianapolis Center
04:34PM 37.8719 -87.1189 79° East 576 663 29,700 -1,560 Descending Indianapolis Center
04:35PM 37.9081 -86.8856 79° East 571 657 27,900 -1,620 Descending Indianapolis Center
04:36PM 37.9383 -86.6919 79° East 565 650 26,400 -1,500 Descending Indianapolis Center
04:37PM 37.9678 -86.4972 79° East 566 651 24,900 -1,740 Descending Indianapolis Center
04:38PM 37.9964 -86.3047 79° East 559 643 22,900 -2,100 Descending Indianapolis Center
04:39PM 38.0247 -86.1211 79° East 537 618 20,600 -2,280 Descending Indianapolis Center
04:40PM 38.0539 -85.9139 80° East 500 575 18,200 -2,100 Descending Indianapolis Center
04:41PM 38.0803 -85.7453 79° East 488 562 16,300 -1,560 Descending Indianapolis Center
04:42PM 38.1022 -85.5853 80° East 462 532 15,000 -1,080 Descending Indianapolis Center
04:43PM 38.0942 -85.4253 94° East 458 527 14,100 -1,320 Descending Indianapolis Center
04:44PM 38.0833 -85.2672 95° East 450 518 12,300 -1,500 Descending Indianapolis Center
04:45PM 38.0753 -85.1067 94° East 414 476 11,100 -900 Descending Indianapolis Center
04:46PM 38.0783 -84.9811 88° East 362 417 10,500 -780 Descending Indianapolis Center
04:47PM 38.1058 -84.8697 73° East 334 384 9,500 -1,080 Descending Indianapolis Center
04:48PM 38.1328 -84.7625 72° East 322 371 8,300 -1,260 Descending Indianapolis Center
04:49PM 38.1731 -84.6481 66° East 321 369 7,000 -1,440 Descending Indianapolis Center
04:50PM 38.2331 -84.5822 41° Northeast 297 342 5,400 -1,560 Descending Indianapolis Center
04:51PM 38.2258 -84.4978 96° East 274 315 3,900 -1,080 Descending Indianapolis Center
04:52PM 38.1853 -84.4400 132° Southeast 241 277 3,200 -360 Descending Indianapolis Center
04:53PM 38.1408 -84.4875 220° Southwest 218 251 3,200 -240 Level Indianapolis Center
04:54PM 38.1039 -84.5289 221° Southwest 197 227 2,800 -540 Descending Indianapolis Center
04:55PM 38.0708 -84.5647 220° Southwest 174 200 2,200 -600 Descending Indianapolis Center